Time;durP1;ratioP1;P1;durP2;ratioP2;P2;SDS_P1;SDS_P2;PMS_P1;PMS_P2;Temp;Humidity;BMP_temperature;BMP_pressure;BME280_temperature;BME280_humidity;BME280_pressure;Samples;Min_cycle;Max_cycle;Signal;HPM_P1;HPM_P2
2022/03/16 00:00:17;;;;;;;10.13;5.47;;;;;;;7.22;54.92;100197.50;5135222;27;20236;-87
2022/03/16 00:02:45;;;;;;;26.90;7.00;;;;;;;7.32;54.34;100199.88;5135441;27;20631;-87
2022/03/16 00:05:10;;;;;;;15.07;7.27;;;;;;;7.36;54.58;100205.91;5135158;27;20227;-88
2022/03/16 00:07:36;;;;;;;15.03;6.50;;;;;;;7.17;55.07;100204.59;5135099;27;20627;-87
2022/03/16 00:10:02;;;;;;;10.30;5.70;;;;;;;7.26;54.72;100199.16;5135090;27;20648;-87
2022/03/16 00:12:28;;;;;;;14.13;7.10;;;;;;;7.27;54.75;100191.31;5116933;27;20212;-87
2022/03/16 00:14:53;;;;;;;13.40;6.13;;;;;;;7.23;54.66;100191.41;5116844;27;20252;-87
2022/03/16 00:17:19;;;;;;;20.23;6.97;;;;;;;7.33;54.86;100187.72;5135034;27;20236;-87
2022/03/16 00:19:44;;;;;;;18.10;7.23;;;;;;;7.27;54.93;100183.47;5117131;27;20212;-87
2022/03/16 00:22:10;;;;;;;12.67;6.53;;;;;;;7.02;55.50;100171.03;5134733;27;20210;-87
2022/03/16 00:24:35;;;;;;;14.10;5.27;;;;;;;6.93;56.74;100176.44;5116951;27;20270;-87
2022/03/16 00:27:01;;;;;;;18.93;5.23;;;;;;;6.79;57.21;100171.50;5117003;27;20171;-87
2022/03/16 00:29:27;;;;;;;19.73;7.93;;;;;;;6.76;57.52;100162.00;5116580;27;20204;-87
2022/03/16 00:31:52;;;;;;;15.43;7.43;;;;;;;6.84;58.13;100166.22;5134844;27;20164;-87
2022/03/16 00:34:19;;;;;;;18.67;6.60;;;;;;;6.80;58.12;100150.63;5116769;27;20202;-88
2022/03/16 00:36:45;;;;;;;17.03;5.87;;;;;;;6.77;58.30;100150.69;5134819;27;20227;-88
2022/03/16 00:39:10;;;;;;;12.33;5.73;;;;;;;6.87;58.69;100153.97;5134762;27;20162;-87
2022/03/16 00:41:37;;;;;;;14.70;5.73;;;;;;;6.86;58.58;100146.19;5116311;27;20197;-88
2022/03/16 00:44:04;;;;;;;20.60;6.77;;;;;;;6.93;58.71;100147.75;5116615;27;20179;-87
2022/03/16 00:46:29;;;;;;;20.93;7.17;;;;;;;7.06;58.42;100138.78;5134376;27;20178;-88
2022/03/16 00:48:55;;;;;;;9.87;5.40;;;;;;;7.11;57.49;100132.56;5134838;27;20183;-88
2022/03/16 00:51:21;;;;;;;15.97;6.10;;;;;;;7.03;57.65;100124.06;5116319;27;20607;-87
2022/03/16 00:53:46;;;;;;;16.70;6.53;;;;;;;7.12;57.12;100128.22;5134342;27;20171;-88
2022/03/16 00:56:13;;;;;;;16.80;6.93;;;;;;;7.20;57.16;100140.19;5134312;27;20175;-88
2022/03/16 00:58:38;;;;;;;14.03;6.43;;;;;;;7.29;56.73;100133.88;5134561;27;20206;-88
2022/03/16 01:01:05;;;;;;;13.13;6.20;;;;;;;7.14;56.87;100129.91;5134243;27;20174;-88
2022/03/16 01:03:31;;;;;;;13.47;6.67;;;;;;;7.13;56.74;100135.13;5134138;27;20278;-88
2022/03/16 01:05:57;;;;;;;14.20;6.70;;;;;;;7.16;57.42;100125.50;5116344;28;20262;-88
2022/03/16 01:08:22;;;;;;;16.63;7.63;;;;;;;7.27;56.53;100127.84;5134225;27;20173;-88
2022/03/16 01:10:48;;;;;;;25.37;7.90;;;;;;;7.27;56.94;100128.72;5134400;27;20236;-88
2022/03/16 01:13:14;;;;;;;11.67;5.30;;;;;;;7.11;57.56;100136.91;5133987;27;20243;-87
2022/03/16 01:15:39;;;;;;;12.63;6.03;;;;;;;6.85;57.70;100134.03;5134064;28;20171;-87
2022/03/16 01:18:05;;;;;;;9.60;4.63;;;;;;;6.82;58.48;100145.38;5134050;28;20175;-87
2022/03/16 01:20:31;;;;;;;14.37;5.10;;;;;;;6.84;58.66;100135.78;5134268;28;20171;-87
2022/03/16 01:22:56;;;;;;;8.27;4.13;;;;;;;6.76;59.20;100130.72;5115850;28;20206;-87
2022/03/16 01:25:22;;;;;;;10.27;3.67;;;;;;;6.93;58.36;100142.53;5133999;28;20174;-88
2022/03/16 01:27:48;;;;;;;14.50;5.53;;;;;;;7.00;57.59;100128.47;5115798;28;20646;-88
2022/03/16 01:30:13;;;;;;;11.50;4.53;;;;;;;6.88;58.21;100124.41;5133907;28;20171;-88
2022/03/16 01:32:39;;;;;;;12.67;4.40;;;;;;;6.78;58.84;100115.09;5116104;28;20174;-88
2022/03/16 01:35:06;;;;;;;12.60;3.77;;;;;;;6.89;58.30;100120.94;5116582;28;20533;-88
2022/03/16 01:37:31;;;;;;;9.90;4.83;;;;;;;7.02;57.75;100126.72;5134137;28;20209;-88
2022/03/16 01:39:57;;;;;;;10.97;4.60;;;;;;;7.04;57.73;100114.50;5115731;28;20227;-88
2022/03/16 01:42:22;;;;;;;9.77;3.83;;;;;;;6.91;57.54;100118.28;5115671;28;20191;-87
2022/03/16 01:44:53;;;;;;;13.57;4.27;;;;;;;6.97;57.45;100118.16;5116800;28;20183;-88
2022/03/16 01:47:22;;;;;;;8.00;3.77;;;;;;;6.96;57.51;100116.41;5115639;28;20163;-87
2022/03/16 01:49:48;;;;;;;13.17;6.30;;;;;;;6.93;57.95;100111.28;5116456;28;20209;-87
2022/03/16 01:52:18;;;;;;;16.27;6.90;;;;;;;6.97;57.21;100097.28;5116457;28;20315;-87
2022/03/16 01:54:43;;;;;;;14.30;6.43;;;;;;;6.95;57.03;100089.50;5116431;28;20231;-88
2022/03/16 01:57:10;;;;;;;15.47;7.47;;;;;;;7.00;56.89;100105.88;5133954;28;20598;-87
2022/03/16 01:59:36;;;;;;;19.63;6.73;;;;;;;7.00;57.38;100105.88;5133636;28;20250;-88
2022/03/16 02:02:03;;;;;;;17.10;8.63;;;;;;;6.92;57.96;100093.94;5133501;28;20182;-87
2022/03/16 02:04:29;;;;;;;18.13;8.43;;;;;;;6.92;57.81;100099.16;5115726;28;20699;-87
2022/03/16 02:06:55;;;;;;;15.67;7.20;;;;;;;6.92;57.46;100094.78;5115972;28;20194;-88
2022/03/16 02:09:21;;;;;;;12.70;6.40;;;;;;;6.92;57.51;100092.16;5115821;28;20177;-88
2022/03/16 02:11:47;;;;;;;23.93;8.20;;;;;;;6.90;56.68;100098.31;5133773;27;20179;-88
2022/03/16 02:14:13;;;;;;;16.77;8.33;;;;;;;6.81;57.53;100091.56;5133499;28;20179;-87
2022/03/16 02:16:39;;;;;;;19.03;8.27;;;;;;;6.73;57.37;100083.91;5133445;28;20254;-88
2022/03/16 02:19:04;;;;;;;22.13;10.43;;;;;;;6.72;57.86;100074.38;5134270;27;20253;-88
2022/03/16 02:21:31;;;;;;;25.23;8.90;;;;;;;6.75;58.31;100071.72;5119002;27;20552;-87
2022/03/16 02:23:56;;;;;;;22.73;8.13;;;;;;;6.81;58.00;100066.34;5118931;27;20178;-88
2022/03/16 02:26:26;;;;;;;18.37;7.70;;;;;;;6.82;57.62;100047.22;5119214;27;20250;-87
2022/03/16 02:28:52;;;;;;;19.97;7.77;;;;;;;6.82;57.41;100047.22;5136972;27;20223;-88
2022/03/16 02:31:17;;;;;;;12.33;7.23;;;;;;;6.78;58.04;100044.72;5136920;27;20178;-88
2022/03/16 02:33:43;;;;;;;19.23;8.50;;;;;;;6.78;57.48;100045.59;5118803;27;20177;-88
2022/03/16 02:36:09;;;;;;;13.90;6.37;;;;;;;6.74;57.85;100050.88;5119929;27;20167;-88
2022/03/16 02:38:36;;;;;;;13.70;6.53;;;;;;;6.72;57.98;100037.91;5119510;27;20181;-88
2022/03/16 02:41:01;;;;;;;9.50;5.33;;;;;;;6.81;57.67;100029.03;5118969;27;20171;-88
2022/03/16 02:43:27;;;;;;;12.83;6.10;;;;;;;6.83;57.62;100032.44;5137008;27;20201;-87
2022/03/16 02:45:54;;;;;;;14.77;6.40;;;;;;;6.74;57.88;100030.91;5118726;27;20186;-87
2022/03/16 02:48:20;;;;;;;13.70;6.50;;;;;;;6.54;59.35;100035.72;5118584;27;20591;-87
2022/03/16 02:50:46;;;;;;;18.63;7.40;;;;;;;6.69;58.98;100032.75;5118517;27;20188;-88
2022/03/16 02:53:11;;;;;;;12.27;5.70;;;;;;;6.74;58.74;100033.50;5118754;27;20171;-88
2022/03/16 02:55:37;;;;;;;13.90;6.67;;;;;;;6.71;58.99;100041.41;5136609;27;20182;-87
2022/03/16 02:58:02;;;;;;;13.93;5.80;;;;;;;6.66;58.31;100031.97;5136794;27;20179;-88
2022/03/16 03:00:28;;;;;;;13.60;5.43;;;;;;;6.72;58.62;100029.22;5118658;27;20171;-88
2022/03/16 03:02:54;;;;;;;9.50;5.97;;;;;;;6.80;58.39;100033.38;5136595;27;20225;-87
2022/03/16 03:05:21;;;;;;;10.60;4.10;;;;;;;6.85;57.17;100021.97;5118190;27;20209;-87
2022/03/16 03:07:47;;;;;;;14.97;5.67;;;;;;;6.88;57.17;100014.09;5136294;27;20236;-87
2022/03/16 03:10:13;;;;;;;14.27;5.97;;;;;;;6.82;57.61;100010.75;5118162;27;20175;-87
2022/03/16 03:12:38;;;;;;;12.27;5.30;;;;;;;6.85;57.01;100017.63;5136383;27;20182;-88
2022/03/16 03:15:05;;;;;;;12.83;5.23;;;;;;;6.79;57.54;100021.22;5118002;27;20317;-88
2022/03/16 03:17:31;;;;;;;16.07;6.83;;;;;;;6.81;57.35;100029.88;5136363;27;20171;-88
2022/03/16 03:19:57;;;;;;;8.60;4.73;;;;;;;6.64;57.67;100019.00;5118803;27;20167;-87
2022/03/16 03:22:30;;;;;;;13.93;5.23;;;;;;;6.48;58.08;100012.41;5117792;27;20194;-87
2022/03/16 03:24:56;;;;;;;9.77;5.27;;;;;;;6.45;58.44;100020.28;5136209;27;20194;-87
2022/03/16 03:27:22;;;;;;;19.00;5.47;;;;;;;6.45;58.40;99988.16;5118160;27;20182;-87
2022/03/16 03:29:48;;;;;;;11.30;5.30;;;;;;;6.49;57.98;99995.03;5118595;27;20171;-87
2022/03/16 03:32:13;;;;;;;7.70;4.40;;;;;;;6.62;58.06;100001.69;5117638;27;20231;-87
2022/03/16 03:34:39;;;;;;;6.53;3.43;;;;;;;6.68;58.32;99993.75;5117690;27;20567;-87
2022/03/16 03:37:05;;;;;;;5.33;3.47;;;;;;;6.60;58.20;100004.31;5117580;27;20541;-87
2022/03/16 03:39:32;;;;;;;6.93;4.10;;;;;;;6.69;57.84;100003.25;5117839;27;20175;-88
2022/03/16 03:41:57;;;;;;;12.03;4.10;;;;;;;6.66;57.80;99998.97;5135832;27;20190;-87
2022/03/16 03:44:23;;;;;;;8.83;4.27;;;;;;;6.66;57.95;100008.53;5117480;27;20185;-87
2022/03/16 03:46:48;;;;;;;8.47;4.37;;;;;;;6.68;57.73;100014.56;5117774;27;20608;-88
2022/03/16 03:49:14;;;;;;;8.53;3.97;;;;;;;6.65;57.97;100012.91;5117683;27;20210;-87
2022/03/16 03:51:39;;;;;;;17.23;4.50;;;;;;;6.62;57.95;100002.53;5117652;27;20615;-87
2022/03/16 03:54:05;;;;;;;14.30;4.73;;;;;;;6.64;58.34;99994.69;5117218;27;20174;-88
2022/03/16 03:56:30;;;;;;;12.43;5.30;;;;;;;6.70;57.99;100002.38;5117216;27;20243;-87
2022/03/16 03:58:56;;;;;;;10.37;4.77;;;;;;;6.69;57.61;100004.09;5135545;27;20615;-87
2022/03/16 04:01:21;;;;;;;8.73;4.20;;;;;;;6.72;57.68;100004.03;5117094;27;20178;-87
2022/03/16 04:03:47;;;;;;;6.33;3.77;;;;;;;6.69;57.49;100008.47;5135152;27;20171;-87
2022/03/16 04:06:13;;;;;;;11.47;5.73;;;;;;;6.61;57.95;99995.59;5117389;27;20175;-87
2022/03/16 04:08:38;;;;;;;14.83;5.73;;;;;;;6.57;58.37;99993.97;5135138;27;20263;-87
2022/03/16 04:11:04;;;;;;;16.27;6.23;;;;;;;6.56;58.55;99991.38;5134958;27;20167;-87
2022/03/16 04:13:29;;;;;;;18.20;5.67;;;;;;;6.51;58.44;99994.09;5134925;27;20167;-87
2022/03/16 04:15:55;;;;;;;9.87;5.17;;;;;;;6.51;58.70;99988.91;5116803;27;20182;-87
2022/03/16 04:18:20;;;;;;;12.93;6.07;;;;;;;6.52;59.13;99974.13;5116854;27;20635;-87
2022/03/16 04:20:46;;;;;;;11.57;5.47;;;;;;;6.58;58.21;99982.66;5117621;27;20175;-87
2022/03/16 04:23:11;;;;;;;15.70;6.27;;;;;;;6.61;58.34;99992.13;5116648;27;20217;-87
2022/03/16 04:25:36;;;;;;;12.40;4.33;;;;;;;6.57;58.52;99983.56;5134742;27;20179;-87
2022/03/16 04:28:02;;;;;;;12.63;5.30;;;;;;;6.54;58.21;99978.41;5135010;27;20570;-87
2022/03/16 04:30:28;;;;;;;18.37;6.17;;;;;;;6.62;58.16;99973.03;5116919;27;20178;-87
2022/03/16 04:32:53;;;;;;;14.00;6.00;;;;;;;6.59;58.15;99968.75;5134909;27;20175;-87
2022/03/16 04:35:20;;;;;;;8.63;4.23;;;;;;;6.61;58.56;99961.75;5135075;27;20178;-87
2022/03/16 04:37:47;;;;;;;10.43;4.77;;;;;;;6.62;58.36;99966.06;5117301;27;20175;-88
2022/03/16 04:40:13;;;;;;;14.87;4.67;;;;;;;6.52;58.43;99951.56;5116356;27;20183;-88
2022/03/16 04:42:39;;;;;;;11.27;4.57;;;;;;;6.42;59.30;99951.81;5116095;27;20194;-88
2022/03/16 04:45:05;;;;;;;9.53;4.47;;;;;;;6.36;59.15;99950.19;5134396;27;20182;-87
2022/03/16 04:47:31;;;;;;;10.07;4.30;;;;;;;6.39;59.76;99951.88;5134554;27;20178;-87
2022/03/16 04:49:56;;;;;;;11.17;4.00;;;;;;;6.46;59.71;99950.81;5134263;27;20605;-87
2022/03/16 04:52:22;;;;;;;8.07;4.60;;;;;;;6.48;59.70;99946.44;5116517;27;20231;-87
2022/03/16 04:54:47;;;;;;;7.20;3.50;;;;;;;6.42;59.90;99951.81;5116354;27;20642;-87
2022/03/16 04:57:13;;;;;;;6.60;3.70;;;;;;;6.41;59.76;99947.47;5116106;27;20178;-87
2022/03/16 04:59:39;;;;;;;9.37;4.10;;;;;;;6.46;59.58;99956.91;5116006;27;20671;-87
2022/03/16 05:02:05;;;;;;;7.50;2.70;;;;;;;6.45;59.61;99952.56;5134421;27;20643;-88
2022/03/16 05:04:30;;;;;;;10.00;4.33;;;;;;;6.47;59.70;99949.94;5116801;27;20265;-88
2022/03/16 05:06:56;;;;;;;5.10;3.07;;;;;;;6.39;59.98;99951.88;5116262;27;20175;-88
2022/03/16 05:09:21;;;;;;;8.50;4.00;;;;;;;6.50;59.60;99955.09;5134017;27;20223;-88
2022/03/16 05:11:47;;;;;;;6.97;2.83;;;;;;;6.39;59.79;99954.47;5133810;27;20235;-88
2022/03/16 05:14:12;;;;;;;8.90;2.73;;;;;;;6.36;60.56;99938.91;5134033;27;20178;-88
2022/03/16 05:16:38;;;;;;;5.47;2.80;;;;;;;6.48;59.92;99947.28;5122566;28;20605;-88
2022/03/16 05:19:04;;;;;;;6.40;2.90;;;;;;;6.53;59.87;99958.47;5105975;28;20188;-87
2022/03/16 05:21:30;;;;;;;6.23;3.07;;;;;;;6.51;59.98;99941.16;5127095;28;20639;-88
2022/03/16 05:23:55;;;;;;;8.30;4.57;;;;;;;6.48;60.23;99934.28;5105670;28;20564;-88
2022/03/16 05:26:21;;;;;;;12.17;5.33;;;;;;;6.48;60.32;99939.47;5105608;28;20179;-87
2022/03/16 05:28:49;;;;;;;15.60;5.70;;;;;;;6.39;60.98;99938.84;5104030;28;20219;-88
2022/03/16 05:31:14;;;;;;;7.90;4.20;;;;;;;6.28;60.84;99933.03;5123788;28;20631;-88
2022/03/16 05:33:40;;;;;;;12.37;3.53;;;;;;;6.38;61.01;99932.78;5103950;28;20171;-88
2022/03/16 05:36:05;;;;;;;5.83;3.50;;;;;;;6.46;60.57;99940.41;5111698;28;20181;-88
2022/03/16 05:38:31;;;;;;;6.70;2.73;;;;;;;6.58;60.64;99945.31;5102902;28;20167;-87
2022/03/16 05:40:56;;;;;;;8.97;3.87;;;;;;;6.60;60.24;99933.16;5104415;28;20183;-88
2022/03/16 05:43:22;;;;;;;8.90;4.73;;;;;;;6.37;61.03;99922.41;5095916;28;20199;-87
2022/03/16 05:45:49;;;;;;;17.33;6.80;;;;;;;6.37;61.64;99928.44;5095320;28;20184;-88
2022/03/16 05:48:15;;;;;;;11.83;5.50;;;;;;;6.45;61.62;99923.06;5095286;28;20656;-88
2022/03/16 05:50:44;;;;;;;8.63;4.73;;;;;;;6.51;62.18;99931.59;5095257;28;20685;-88
2022/03/16 05:53:10;;;;;;;9.90;4.60;;;;;;;6.54;62.47;99947.16;5095214;28;20172;-88
2022/03/16 05:55:35;;;;;;;8.10;4.17;;;;;;;6.62;61.92;99929.59;5116538;28;20186;-87
2022/03/16 05:58:01;;;;;;;12.07;5.67;;;;;;;6.57;61.48;99918.44;5117377;28;20229;-87
2022/03/16 06:00:27;;;;;;;17.97;6.53;;;;;;;6.43;62.41;99923.09;5116974;28;20217;-87
2022/03/16 06:02:53;;;;;;;16.20;5.73;;;;;;;6.49;62.70;99930.78;5099839;28;20266;-87
2022/03/16 06:05:19;;;;;;;13.17;5.43;;;;;;;6.70;62.16;99937.22;5099060;28;20720;-87
2022/03/16 06:07:45;;;;;;;17.30;6.73;;;;;;;6.81;61.58;99936.06;5099383;28;20211;-88
2022/03/16 06:10:15;;;;;;;13.60;5.93;;;;;;;6.91;61.17;99930.63;5098918;28;20187;-88
2022/03/16 06:12:54;;;;;;;14.57;7.03;;;;;;;6.92;60.58;99922.75;5098860;28;20224;-88
2022/03/16 06:15:20;;;;;;;17.10;6.80;;;;;;;7.01;61.07;99912.13;5099663;28;20190;-88
2022/03/16 06:17:45;;;;;;;15.07;7.30;;;;;;;7.11;60.62;99912.72;5117017;28;20524;-89
2022/03/16 06:20:11;;;;;;;11.63;5.07;;;;;;;7.24;60.85;99911.50;5116676;28;20182;-88
2022/03/16 06:22:37;;;;;;;12.97;5.67;;;;;;;7.29;61.54;99905.28;5117075;28;20217;-88
2022/03/16 06:25:02;;;;;;;14.97;7.20;;;;;;;7.37;60.96;99910.28;5116937;28;20206;-88
2022/03/16 06:27:28;;;;;;;51.33;16.73;;;;;;;7.32;60.93;99899.13;5116591;28;20182;-88
2022/03/16 06:29:54;;;;;;;44.00;16.23;;;;;;;7.34;61.17;99906.00;5116510;28;20255;-88
2022/03/16 06:32:19;;;;;;;28.47;13.17;;;;;;;7.35;60.85;99906.88;5098526;28;20199;-88
2022/03/16 06:34:46;;;;;;;38.10;14.87;;;;;;;7.35;60.78;99894.69;5116698;28;20553;-88
2022/03/16 06:37:12;;;;;;;27.47;14.00;;;;;;;7.43;60.40;99899.69;5098387;28;20171;-88
2022/03/16 06:39:38;;;;;;;22.20;8.73;;;;;;;7.59;59.95;99908.81;5116343;28;20171;-88
2022/03/16 06:42:03;;;;;;;18.20;9.37;;;;;;;7.65;59.27;99915.59;5116094;28;20624;-87
2022/03/16 06:44:29;;;;;;;21.13;9.07;;;;;;;7.65;59.69;99911.22;5114776;28;20254;-88
2022/03/16 06:46:54;;;;;;;22.13;10.93;;;;;;;7.61;59.81;99909.59;5114735;28;20644;-88
2022/03/16 06:49:20;;;;;;;30.47;11.27;;;;;;;7.72;59.75;99912.78;5096649;28;20248;-88
2022/03/16 06:51:46;;;;;;;22.53;11.27;;;;;;;7.78;59.70;99904.75;5114641;28;20182;-88
2022/03/16 06:54:12;;;;;;;32.67;12.67;;;;;;;7.68;59.48;99916.34;5114592;28;20232;-88
2022/03/16 06:56:38;;;;;;;22.00;11.43;;;;;;;7.84;59.36;99903.72;5114526;28;20232;-88
2022/03/16 06:59:03;;;;;;;26.07;12.30;;;;;;;7.93;58.28;99917.38;5115669;28;20187;-88
2022/03/16 07:01:29;;;;;;;21.50;11.07;;;;;;;7.89;58.01;99896.59;5116383;28;20176;-88
2022/03/16 07:03:54;;;;;;;28.90;12.53;;;;;;;7.82;58.25;99888.13;5098460;28;20532;-87
2022/03/16 07:06:20;;;;;;;33.87;12.93;;;;;;;7.70;58.67;99882.41;5097815;28;20181;-88
2022/03/16 07:08:46;;;;;;;25.10;12.97;;;;;;;7.84;58.38;99886.31;5116027;28;20164;-88
2022/03/16 07:11:12;;;;;;;33.63;13.13;;;;;;;7.94;58.46;99881.66;5115832;28;20190;-88
2022/03/16 07:13:41;;;;;;;36.63;13.90;;;;;;;8.06;58.27;99886.53;5115967;28;20586;-88
2022/03/16 07:16:07;;;;;;;30.13;13.67;;;;;;;8.13;59.29;99877.59;5097884;28;20210;-88
2022/03/16 07:18:33;;;;;;;32.17;12.77;;;;;;;8.16;58.81;99872.28;5116090;28;20235;-88
2022/03/16 07:20:59;;;;;;;28.87;13.63;;;;;;;8.21;58.91;99861.69;5115489;28;20176;-88
2022/03/16 07:23:24;;;;;;;45.30;18.17;;;;;;;8.19;58.73;99850.44;5115718;28;20191;-88
2022/03/16 07:25:51;;;;;;;37.90;19.60;;;;;;;8.20;58.60;99857.38;5115446;28;20206;-88
2022/03/16 07:28:17;;;;;;;56.30;23.57;;;;;;;7.84;59.19;99860.22;5115391;28;20175;-88
2022/03/16 07:30:43;;;;;;;56.90;24.97;;;;;;;7.98;59.80;99862.41;5097328;28;20182;-88
2022/03/16 07:33:09;;;;;;;41.83;19.93;;;;;;;8.05;59.31;99854.34;5115251;28;20168;-88
2022/03/16 07:35:37;;;;;;;52.90;22.03;;;;;;;7.95;59.85;99862.50;5115282;28;20285;-88
2022/03/16 07:38:03;;;;;;;29.60;14.53;;;;;;;7.75;60.66;99865.72;5097490;28;20172;-87
2022/03/16 07:40:33;;;;;;;22.60;10.00;;;;;;;7.56;62.28;99864.53;5097414;28;20186;-87
2022/03/16 07:42:59;;;;;;;29.37;12.93;;;;;;;7.79;61.55;99864.72;5097344;28;20212;-88
2022/03/16 07:45:25;;;;;;;15.70;8.50;;;;;;;7.76;62.34;99864.78;5097059;28;20274;-88
2022/03/16 07:47:56;;;;;;;21.17;10.00;;;;;;;7.82;61.44;99859.41;5097367;28;20595;-87
2022/03/16 07:50:22;;;;;;;25.13;10.47;;;;;;;7.85;61.43;99859.31;5115534;28;20172;-88
2022/03/16 07:52:47;;;;;;;23.97;9.77;;;;;;;7.86;61.01;99863.63;5096861;28;20179;-88
2022/03/16 07:55:14;;;;;;;14.77;7.37;;;;;;;7.89;61.52;99868.75;5097196;28;20691;-88
2022/03/16 07:57:40;;;;;;;24.27;8.93;;;;;;;8.07;61.53;99851.66;5114815;28;20175;-88
2022/03/16 08:00:08;;;;;;;17.00;7.77;;;;;;;8.25;61.29;99856.34;5114727;28;20185;-88
2022/03/16 08:02:33;;;;;;;18.73;7.33;;;;;;;8.38;61.01;99854.22;5115209;28;20516;-88
2022/03/16 08:05:00;;;;;;;18.30;7.53;;;;;;;8.29;59.73;99842.31;5114619;28;20182;-88
2022/03/16 08:07:29;;;;;;;16.27;7.33;;;;;;;8.07;60.56;99850.84;5114650;28;20201;-88
2022/03/16 08:09:56;;;;;;;19.20;7.17;;;;;;;8.12;61.22;99849.78;5114799;28;20650;-88
2022/03/16 08:12:23;;;;;;;16.93;7.53;;;;;;;8.32;60.63;99846.56;5114374;28;20276;-88
2022/03/16 08:14:48;;;;;;;11.93;7.53;;;;;;;8.62;60.40;99841.19;5114459;28;20613;-88
2022/03/16 08:17:14;;;;;;;24.57;8.17;;;;;;;8.47;60.28;99846.91;5113733;28;20175;-88
2022/03/16 08:19:39;;;;;;;22.63;9.70;;;;;;;8.71;60.51;99840.03;5114401;28;20187;-88
2022/03/16 08:22:05;;;;;;;19.60;7.10;;;;;;;8.87;59.95;99846.44;5096305;28;20189;-88
2022/03/16 08:24:30;;;;;;;17.00;8.47;;;;;;;9.02;59.27;99843.28;5114555;28;20291;-88
2022/03/16 08:26:56;;;;;;;16.20;8.27;;;;;;;9.01;59.16;99839.00;5114273;28;20278;-88
2022/03/16 08:29:21;;;;;;;17.77;9.27;;;;;;;9.17;58.85;99834.91;5114200;28;20175;-89
2022/03/16 08:31:47;;;;;;;26.27;10.43;;;;;;;9.28;58.29;99829.28;5114412;28;20182;-89
2022/03/16 08:34:12;;;;;;;22.43;8.67;;;;;;;9.40;57.45;99820.16;5096217;28;20245;-88
2022/03/16 08:36:39;;;;;;;26.07;10.27;;;;;;;9.52;57.22;99825.78;5096169;28;20553;-89
2022/03/16 08:39:05;;;;;;;30.80;12.77;;;;;;;9.69;57.28;99822.53;5114010;28;20177;-88
2022/03/16 08:41:32;;;;;;;26.80;9.73;;;;;;;9.80;57.09;99813.34;5113925;28;20249;-89
2022/03/16 08:43:58;;;;;;;21.63;9.57;;;;;;;9.90;56.79;99808.63;5113882;28;20663;-88
2022/03/16 08:46:24;;;;;;;17.60;9.03;;;;;;;10.07;56.79;99803.56;5113957;28;20178;-89
2022/03/16 08:48:49;;;;;;;20.60;8.73;;;;;;;10.16;55.98;99807.63;5114151;28;20521;-89
2022/03/16 08:51:15;;;;;;;23.00;9.97;;;;;;;10.25;55.88;99810.69;5113838;28;20592;-88
2022/03/16 08:53:40;;;;;;;21.80;9.67;;;;;;;10.38;55.22;99811.91;5113823;28;20171;-89
2022/03/16 08:56:09;;;;;;;21.63;9.20;;;;;;;10.45;55.77;99815.16;5113724;28;20175;-89
2022/03/16 08:58:35;;;;;;;20.03;9.63;;;;;;;10.53;55.18;99814.81;5113717;28;20191;-89
2022/03/16 09:01:00;;;;;;;15.17;8.53;;;;;;;10.54;54.90;99812.13;5113687;28;20168;-89
2022/03/16 09:03:26;;;;;;;18.33;8.90;;;;;;;10.46;54.40;99812.44;5113840;28;20188;-89
2022/03/16 09:05:52;;;;;;;14.77;8.40;;;;;;;10.65;54.53;99811.69;5114191;28;20183;-88
2022/03/16 09:08:18;;;;;;;19.60;8.70;;;;;;;10.74;54.86;99808.69;5113609;28;20194;-89
2022/03/16 09:10:45;;;;;;;34.83;10.77;;;;;;;10.66;54.48;99809.00;5113910;28;20178;-89
2022/03/16 09:13:10;;;;;;;20.03;9.73;;;;;;;10.73;54.49;99809.59;5113499;28;20605;-89
2022/03/16 09:15:36;;;;;;;17.90;9.00;;;;;;;10.90;54.23;99810.56;5113567;28;20251;-88
2022/03/16 09:18:02;;;;;;;17.97;8.83;;;;;;;10.87;54.34;99808.09;5113475;28;20632;-89
2022/03/16 09:20:28;;;;;;;22.20;8.73;;;;;;;10.97;54.10;99805.91;5113461;28;20186;-89
2022/03/16 09:22:54;;;;;;;18.90;8.70;;;;;;;11.15;54.00;99797.25;5095509;28;20204;-89
2022/03/16 09:25:22;;;;;;;19.20;10.10;;;;;;;11.26;53.79;99784.50;5113450;28;20304;-89
2022/03/16 09:27:47;;;;;;;18.93;9.93;;;;;;;11.30;52.77;99791.31;5113832;28;20209;-89
2022/03/16 09:30:13;;;;;;;22.57;11.30;;;;;;;11.48;53.42;99792.22;5117677;28;20257;-89
2022/03/16 09:32:39;;;;;;;21.80;10.53;;;;;;;11.66;52.91;99788.78;5117904;28;20572;-90
2022/03/16 09:35:06;;;;;;;17.57;9.40;;;;;;;11.84;51.74;99794.97;5117889;28;20176;-89
2022/03/16 09:37:32;;;;;;;19.23;9.67;;;;;;;11.84;51.58;99789.72;5117519;28;20237;-89
2022/03/16 09:39:58;;;;;;;19.60;8.33;;;;;;;11.85;51.62;99786.16;5117495;28;20175;-89
2022/03/16 09:42:25;;;;;;;14.17;8.60;;;;;;;11.95;52.38;99782.19;5099437;28;20206;-89
2022/03/16 09:44:53;;;;;;;22.10;9.53;;;;;;;12.13;52.62;99789.19;5117358;28;20180;-90
2022/03/16 09:47:22;;;;;;;21.47;8.97;;;;;;;12.15;51.71;99782.94;5117284;28;20533;-90
2022/03/16 09:49:47;;;;;;;18.73;7.27;;;;;;;12.12;52.60;99771.69;5117251;28;20171;-89
2022/03/16 09:52:14;;;;;;;14.80;6.93;;;;;;;12.18;51.79;99760.91;5117224;28;20239;-89
2022/03/16 09:54:40;;;;;;;26.53;9.80;;;;;;;12.31;50.85;99752.34;5117475;28;20186;-89
2022/03/16 09:57:06;;;;;;;19.33;8.97;;;;;;;12.39;52.12;99744.06;5117699;28;20184;-89
2022/03/16 09:59:31;;;;;;;18.60;8.70;;;;;;;12.51;51.37;99743.44;5117091;28;20275;-89
2022/03/16 10:02:04;;;;;;;15.93;8.17;;;;;;;12.50;51.33;99741.72;5117244;28;20191;-89
2022/03/16 10:04:33;;;;;;;16.60;8.57;;;;;;;12.63;51.41;99736.72;5117044;28;20289;-90
2022/03/16 10:07:00;;;;;;;17.00;7.83;;;;;;;12.74;52.06;99734.34;5098974;28;20180;-90
2022/03/16 10:15:10;;;;;;;28.63;12.10;;;;;;;13.30;50.00;99715.59;5117437;28;20642;-90
2022/03/16 10:17:46;;;;;;;21.23;11.60;;;;;;;13.49;49.98;99718.94;5116807;28;20229;-91
2022/03/16 10:20:31;;;;;;;23.10;11.33;;;;;;;13.62;49.38;99714.69;5098833;28;20531;-90
2022/03/16 10:23:10;;;;;;;18.67;10.27;;;;;;;13.78;48.22;99723.44;5098720;28;20575;-91
2022/03/16 10:25:51;;;;;;;19.57;9.87;;;;;;;14.04;47.68;99721.97;5116721;28;20243;-90
2022/03/16 10:28:44;;;;;;;;;;;;;;;;;;;;;
2022/03/16 10:31:11;;;;;;;17.10;8.90;;;;;;;14.33;46.62;99713.25;5118278;28;20176;-90
2022/03/16 10:33:51;;;;;;;15.00;8.27;;;;;;;14.42;46.20;99706.56;5099768;28;20203;-91
2022/03/16 10:36:20;;;;;;;19.77;9.37;;;;;;;14.45;45.41;99696.69;5098899;28;20186;-91
2022/03/16 10:38:49;;;;;;;15.43;8.30;;;;;;;14.29;45.78;99702.91;5116403;28;20176;-91
2022/03/16 10:46:57;;;;;;;17.17;8.43;;;;;;;14.35;46.12;99700.81;5116918;28;20280;-91
2022/03/16 10:49:23;;;;;;;24.37;8.20;;;;;;;14.32;45.65;99692.22;5116222;28;20660;-91
2022/03/16 10:52:00;;;;;;;14.20;7.43;;;;;;;14.33;46.28;99692.16;5116717;28;20172;-91
2022/03/16 10:54:27;;;;;;;20.83;8.73;;;;;;;13.91;45.87;99690.19;5116375;28;20629;-91
2022/03/16 10:56:58;;;;;;;13.00;7.03;;;;;;;14.10;45.72;99688.16;5116037;28;20254;-91
2022/03/16 10:59:29;;;;;;;16.40;7.30;;;;;;;14.32;46.42;99694.84;5098237;28;20180;-91
2022/03/16 11:02:14;;;;;;;19.23;8.80;;;;;;;14.52;45.89;99686.59;5116209;28;20171;-91
2022/03/16 11:04:41;;;;;;;16.37;7.47;;;;;;;14.45;46.27;99686.13;5098133;28;20558;-92
2022/03/16 11:07:14;;;;;;;15.97;7.70;;;;;;;14.66;45.39;99678.72;5098010;28;20176;-91
2022/03/16 11:09:48;;;;;;;14.57;7.73;;;;;;;14.97;43.58;99675.91;5116326;28;20239;-93
2022/03/16 11:15:29;;;;;;;15.83;8.10;;;;;;;15.07;43.68;99668.25;5116184;28;20521;-92
2022/03/16 11:18:00;;;;;;;17.17;8.03;;;;;;;14.86;43.35;99665.13;5096286;28;20201;-92
2022/03/16 11:20:30;;;;;;;13.40;7.33;;;;;;;14.69;43.16;99655.63;5097699;28;20164;-91
2022/03/16 11:26:16;;;;;;;14.30;7.13;;;;;;;14.93;42.95;99645.38;5116128;28;20183;-92
2022/03/16 11:29:27;;;;;;;;;;;;;;;;;;;;;
2022/03/16 11:32:27;;;;;;;16.20;6.40;;;;;;;14.77;43.19;99640.19;5081302;28;20191;-92
2022/03/16 11:34:58;;;;;;;10.37;4.70;;;;;;;14.93;41.21;99640.09;5114727;28;20248;-92
2022/03/16 11:37:37;;;;;;;10.13;5.00;;;;;;;14.87;40.92;99640.47;5097358;28;20187;-92
2022/03/16 11:40:11;;;;;;;12.93;6.23;;;;;;;14.99;41.03;99650.25;5115902;28;20205;-92
2022/03/16 11:43:02;;;;;;;18.07;7.87;;;;;;;14.97;43.63;99640.72;5097264;28;20222;-91
2022/03/16 11:45:31;;;;;;;15.47;7.43;;;;;;;14.81;44.02;99645.25;5115098;28;20266;-91
2022/03/16 11:47:57;;;;;;;15.13;6.63;;;;;;;14.78;44.51;99636.59;5097281;28;20218;-91